createdAt,value
2019-03-17T00:01:30.894Z,19.63
2019-03-17T00:04:01.783Z,17.90
2019-03-17T00:06:33.500Z,17.67
2019-03-17T00:09:05.274Z,17.73
2019-03-17T00:11:35.857Z,15.37
2019-03-17T00:14:07.062Z,14.43
2019-03-17T00:16:38.774Z,13.90
2019-03-17T00:19:10.253Z,14.70
2019-03-17T00:21:40.730Z,15.33
2019-03-17T00:24:11.364Z,12.17
2019-03-17T00:26:42.872Z,13.07
2019-03-17T00:29:13.340Z,12.47
2019-03-17T00:31:43.820Z,13.67
2019-03-17T00:34:15.107Z,12.97
2019-03-17T00:36:46.674Z,14.60
2019-03-17T00:39:17.549Z,14.83
2019-03-17T00:41:47.871Z,16.30
2019-03-17T00:44:18.394Z,15.17
2019-03-17T00:46:48.993Z,15.93
2019-03-17T00:49:19.413Z,16.53
2019-03-17T00:51:49.802Z,17.77
2019-03-17T00:54:20.181Z,19.17
2019-03-17T00:56:50.556Z,19.60
2019-03-17T00:59:21.392Z,17.00
2019-03-17T01:01:52.094Z,14.50
2019-03-17T01:04:22.987Z,14.70
2019-03-17T01:06:53.440Z,16.63
2019-03-17T01:09:23.806Z,14.13
2019-03-17T01:11:54.662Z,15.70
2019-03-17T01:14:25.088Z,14.00
2019-03-17T01:16:55.528Z,14.50
2019-03-17T01:19:26.302Z,14.60
2019-03-17T01:21:56.842Z,13.83
2019-03-17T01:24:27.326Z,15.73
2019-03-17T01:26:57.950Z,15.23
2019-03-17T01:29:28.404Z,15.70
2019-03-17T01:31:58.843Z,14.70
2019-03-17T01:34:29.314Z,13.90
2019-03-17T01:36:59.943Z,14.57
2019-03-17T01:39:30.429Z,15.50
2019-03-17T01:42:01.142Z,12.10
2019-03-17T01:44:31.544Z,14.33
2019-03-17T01:47:02.093Z,15.50
2019-03-17T01:49:32.520Z,13.07
2019-03-17T01:52:02.974Z,12.50
2019-03-17T01:54:33.651Z,17.37
2019-03-17T01:57:04.064Z,16.20
2019-03-17T01:59:34.826Z,14.60
2019-03-17T02:02:06.781Z,16.10
2019-03-17T02:04:37.229Z,22.23
2019-03-17T02:07:08.157Z,16.83
2019-03-17T02:09:39.838Z,19.27
2019-03-17T02:12:10.644Z,15.63
2019-03-17T02:14:41.190Z,17.57
2019-03-17T02:17:11.593Z,14.50
2019-03-17T02:19:42.028Z,13.40
2019-03-17T02:22:12.518Z,17.10
2019-03-17T02:24:42.999Z,16.87
2019-03-17T02:27:13.398Z,14.87
2019-03-17T02:29:44.042Z,13.93
2019-03-17T02:32:14.670Z,19.10
2019-03-17T02:34:45.335Z,18.67
2019-03-17T02:37:17.584Z,18.20
2019-03-17T02:39:48.082Z,18.47
2019-03-17T02:42:19.702Z,22.30
2019-03-17T02:44:50.166Z,19.03
2019-03-17T02:47:20.564Z,17.70
2019-03-17T02:49:51.996Z,15.57
2019-03-17T02:52:22.515Z,18.40
2019-03-17T02:54:53.389Z,21.80
2019-03-17T02:57:24.047Z,19.30
2019-03-17T02:59:54.904Z,22.20
2019-03-17T03:02:25.667Z,18.77
2019-03-17T03:04:56.633Z,21.77
2019-03-17T03:07:28.171Z,22.20
2019-03-17T03:09:58.677Z,18.73
2019-03-17T03:12:29.899Z,24.00
2019-03-17T03:15:00.561Z,21.90
2019-03-17T03:17:31.156Z,24.37
2019-03-17T03:20:01.919Z,18.43
2019-03-17T03:22:33.098Z,22.07
2019-03-17T03:25:03.524Z,21.43
2019-03-17T03:27:33.951Z,30.17
2019-03-17T03:30:06.319Z,26.30
2019-03-17T03:32:36.792Z,24.57
2019-03-17T03:35:07.723Z,25.27
2019-03-17T03:37:38.579Z,21.63
2019-03-17T03:40:10.590Z,27.80
2019-03-17T03:42:41.115Z,30.30
2019-03-17T03:45:12.469Z,32.77
2019-03-17T03:47:43.110Z,28.53
2019-03-17T03:50:14.623Z,30.50
2019-03-17T03:52:45.131Z,25.30
2019-03-17T03:55:15.658Z,28.60
2019-03-17T03:57:46.221Z,30.23
2019-03-17T04:00:16.663Z,28.47
2019-03-17T04:02:47.078Z,31.80
2019-03-17T04:05:17.612Z,33.37
2019-03-17T04:07:47.987Z,29.63
2019-03-17T04:10:18.412Z,29.37
2019-03-17T04:12:48.838Z,28.30
2019-03-17T04:15:19.237Z,34.00
2019-03-17T04:17:49.674Z,34.33
2019-03-17T04:20:20.152Z,31.07
2019-03-17T04:22:50.793Z,35.20
2019-03-17T04:25:21.296Z,42.10
2019-03-17T04:27:51.864Z,35.80
2019-03-17T04:30:22.482Z,42.83
2019-03-17T04:32:52.879Z,47.50
2019-03-17T04:35:23.787Z,51.07
2019-03-17T04:37:54.156Z,43.03
2019-03-17T04:40:24.678Z,48.23
2019-03-17T04:42:55.553Z,49.87
2019-03-17T04:45:26.868Z,54.00
2019-03-17T04:47:57.260Z,45.53
2019-03-17T04:50:27.810Z,51.60
2019-03-17T04:52:58.373Z,49.10
2019-03-17T04:55:30.142Z,50.07
2019-03-17T04:58:00.669Z,56.43
2019-03-17T05:00:31.395Z,51.07
2019-03-17T05:03:02.124Z,56.20
2019-03-17T05:05:32.801Z,50.00
2019-03-17T05:08:03.323Z,53.00
2019-03-17T05:10:33.783Z,52.80
2019-03-17T05:13:04.351Z,55.60
2019-03-17T05:15:35.152Z,46.23
2019-03-17T05:18:05.887Z,45.27
2019-03-17T05:20:37.884Z,46.37
2019-03-17T05:23:08.644Z,46.60
2019-03-17T05:25:39.861Z,42.13
2019-03-17T05:28:10.268Z,46.53
2019-03-17T05:30:41.150Z,43.33
2019-03-17T05:33:11.619Z,43.73
2019-03-17T05:35:42.127Z,39.87
2019-03-17T05:38:12.823Z,42.90
2019-03-17T05:40:43.233Z,40.17
2019-03-17T05:43:13.629Z,38.83
2019-03-17T05:45:44.032Z,40.47
2019-03-17T05:48:14.497Z,36.77
2019-03-17T05:50:44.914Z,39.37
2019-03-17T05:53:15.293Z,39.07
2019-03-17T05:55:45.960Z,38.67
2019-03-17T05:58:16.325Z,41.50
2019-03-17T06:00:46.786Z,41.60
2019-03-17T06:03:17.284Z,34.77
2019-03-17T06:05:47.885Z,35.80
2019-03-17T06:08:18.487Z,35.87
2019-03-17T06:10:49.059Z,43.90
2019-03-17T06:13:19.466Z,34.93
2019-03-17T06:15:50.209Z,36.70
2019-03-17T06:18:21.425Z,34.60
2019-03-17T06:20:53.583Z,32.50
2019-03-17T06:23:24.100Z,34.50
2019-03-17T06:25:54.583Z,34.43
2019-03-17T06:28:25.135Z,30.97
2019-03-17T06:30:55.605Z,30.27
2019-03-17T06:33:26.415Z,33.07
2019-03-17T06:35:57.173Z,28.87
2019-03-17T06:38:27.987Z,27.07
2019-03-17T06:40:58.445Z,28.90
2019-03-17T06:43:28.839Z,26.27
2019-03-17T06:45:59.275Z,27.87
2019-03-17T06:48:29.903Z,26.63
2019-03-17T06:51:00.545Z,28.03
2019-03-17T06:53:33.392Z,24.03
2019-03-17T06:56:04.139Z,23.97
2019-03-17T06:58:34.583Z,27.27
2019-03-17T07:01:05.215Z,25.13
2019-03-17T07:03:35.859Z,26.33
2019-03-17T07:06:06.804Z,37.03
2019-03-17T07:08:37.307Z,21.23
2019-03-17T07:11:10.782Z,25.73
2019-03-17T07:13:40.017Z,24.03
2019-03-17T07:16:10.520Z,26.37
2019-03-17T07:18:41.089Z,21.77
2019-03-17T07:21:11.836Z,23.53
2019-03-17T07:23:42.402Z,21.33
2019-03-17T07:26:13.474Z,22.33
2019-03-17T07:28:43.949Z,21.43
2019-03-17T07:31:14.475Z,18.43
2019-03-17T07:33:44.906Z,20.27
2019-03-17T07:36:15.332Z,22.73
2019-03-17T07:38:45.827Z,19.47
2019-03-17T07:41:16.943Z,22.57
2019-03-17T07:43:47.335Z,22.93
2019-03-17T07:46:18.101Z,16.97
2019-03-17T07:48:48.943Z,17.57
2019-03-17T07:51:19.849Z,19.00
2019-03-17T07:53:50.302Z,17.40
2019-03-17T07:56:20.967Z,15.23
2019-03-17T07:58:51.556Z,17.87
2019-03-17T08:01:22.361Z,22.03
2019-03-17T08:03:52.781Z,24.33
2019-03-17T08:06:23.240Z,18.17
2019-03-17T08:08:53.716Z,18.03
2019-03-17T08:11:24.139Z,17.27
2019-03-17T08:13:54.740Z,17.40
2019-03-17T08:16:25.283Z,13.83
2019-03-17T08:18:55.729Z,16.40
2019-03-17T08:21:26.175Z,14.20
2019-03-17T08:23:56.807Z,14.50
2019-03-17T08:26:27.213Z,13.53
2019-03-17T08:28:57.719Z,9.33
2019-03-17T08:31:28.283Z,13.10
2019-03-17T08:33:59.489Z,17.37
2019-03-17T08:36:29.947Z,13.00
2019-03-17T08:39:00.393Z,13.43
2019-03-17T08:41:31.349Z,14.67
2019-03-17T08:44:01.863Z,11.53
2019-03-17T08:46:32.439Z,12.67
2019-03-17T08:49:02.943Z,13.10
2019-03-17T08:51:33.471Z,10.97
2019-03-17T08:54:04.371Z,12.90
2019-03-17T08:56:34.973Z,11.60
2019-03-17T08:59:05.681Z,12.83
2019-03-17T09:01:36.686Z,13.83
2019-03-17T09:04:07.470Z,14.03
2019-03-17T09:06:38.293Z,8.60
2019-03-17T09:09:09.304Z,11.77
2019-03-17T09:11:39.759Z,12.47
2019-03-17T09:14:10.237Z,10.60
2019-03-17T09:16:40.890Z,11.70
2019-03-17T09:19:11.345Z,10.53
2019-03-17T09:21:41.823Z,10.47
2019-03-17T09:24:17.550Z,9.17
2019-03-17T09:26:44.883Z,10.67
2019-03-17T09:29:15.345Z,8.40
2019-03-17T09:31:45.997Z,9.87
2019-03-17T09:34:16.522Z,11.57
2019-03-17T09:36:46.950Z,12.07
2019-03-17T09:39:17.463Z,8.90
2019-03-17T09:41:47.945Z,9.33
2019-03-17T09:44:18.451Z,9.03
2019-03-17T09:46:49.831Z,10.63
2019-03-17T09:49:21.956Z,9.23
2019-03-17T09:51:52.375Z,18.33
2019-03-17T09:54:22.843Z,9.00
2019-03-17T09:56:53.299Z,8.93
2019-03-17T09:59:23.805Z,10.80
2019-03-17T10:01:54.267Z,9.23
2019-03-17T10:04:24.743Z,10.70
2019-03-17T10:06:55.171Z,6.97
2019-03-17T10:09:25.666Z,7.47
2019-03-17T10:11:56.185Z,14.23
2019-03-17T10:14:26.663Z,12.83
2019-03-17T10:16:57.212Z,9.60
2019-03-17T10:19:27.677Z,7.90
2019-03-17T10:21:58.188Z,8.33
2019-03-17T10:24:28.605Z,7.50
2019-03-17T10:26:59.145Z,6.90
2019-03-17T10:29:29.714Z,8.10
2019-03-17T10:32:00.435Z,6.70
2019-03-17T10:34:30.963Z,8.37
2019-03-17T10:37:01.391Z,8.77
2019-03-17T10:39:31.803Z,8.68
2019-03-17T10:42:02.265Z,8.53
2019-03-17T10:44:32.657Z,7.53
2019-03-17T10:47:03.032Z,8.17
2019-03-17T10:49:33.460Z,7.40
2019-03-17T10:52:05.221Z,9.10
2019-03-17T10:54:35.591Z,8.37
2019-03-17T10:57:06.085Z,10.07
2019-03-17T10:59:36.479Z,9.13
2019-03-17T11:02:06.919Z,15.23
2019-03-17T11:04:37.396Z,8.97
2019-03-17T11:07:07.823Z,9.45
2019-03-17T11:09:38.280Z,6.67
2019-03-17T11:12:08.767Z,7.85
2019-03-17T11:14:40.593Z,7.10
2019-03-17T11:17:11.454Z,7.58
2019-03-17T11:19:41.886Z,6.97
2019-03-17T11:22:12.309Z,7.15
2019-03-17T11:24:42.713Z,8.68
2019-03-17T11:27:13.339Z,6.28
2019-03-17T11:29:43.824Z,7.70
2019-03-17T11:32:14.583Z,5.80
2019-03-17T11:34:45.126Z,6.67
2019-03-17T11:37:15.620Z,6.90
2019-03-17T11:39:46.130Z,6.58
2019-03-17T11:42:16.638Z,8.95
2019-03-17T11:44:47.111Z,5.10
2019-03-17T11:47:17.462Z,4.65
2019-03-17T11:49:47.935Z,5.28
2019-03-17T11:52:18.505Z,5.42
2019-03-17T11:54:48.913Z,5.67
2019-03-17T11:57:19.711Z,5.83
2019-03-17T11:59:50.243Z,6.47
2019-03-17T12:02:26.523Z,5.50
2019-03-17T12:04:52.801Z,4.03
2019-03-17T12:07:23.391Z,4.83
2019-03-17T12:09:53.859Z,3.52
2019-03-17T12:12:24.291Z,4.87
2019-03-17T12:14:54.773Z,3.95
2019-03-17T12:17:25.369Z,3.58
2019-03-17T12:19:55.861Z,4.97
2019-03-17T12:22:26.298Z,5.90
2019-03-17T12:24:56.877Z,4.22
2019-03-17T12:27:27.395Z,4.25
2019-03-17T12:29:58.220Z,3.85
2019-03-17T12:32:29.060Z,4.58
2019-03-17T12:34:59.625Z,4.58
2019-03-17T12:37:30.061Z,4.87
2019-03-17T12:40:03.005Z,4.22
2019-03-17T12:42:32.755Z,5.28
2019-03-17T12:45:03.398Z,3.80
2019-03-17T12:47:33.790Z,3.87
2019-03-17T12:50:04.224Z,4.72
2019-03-17T12:52:35.373Z,4.53
2019-03-17T12:55:06.442Z,5.20
2019-03-17T12:57:36.840Z,5.33
2019-03-17T13:00:10.014Z,4.92
2019-03-17T13:02:40.661Z,4.28
2019-03-17T13:05:11.869Z,4.45
2019-03-17T13:07:42.335Z,6.55
2019-03-17T13:10:15.836Z,5.60
2019-03-17T13:12:46.386Z,4.08
2019-03-17T13:15:16.969Z,4.03
2019-03-17T13:17:47.446Z,4.53
2019-03-17T13:20:18.015Z,3.27
2019-03-17T13:22:48.461Z,3.30
2019-03-17T13:25:19.199Z,3.65
2019-03-17T13:27:50.800Z,3.52
2019-03-17T13:30:21.430Z,4.40
2019-03-17T13:32:51.919Z,4.15
2019-03-17T13:35:22.556Z,4.90
2019-03-17T13:37:53.556Z,3.72
2019-03-17T13:40:29.242Z,5.45
2019-03-17T13:42:56.122Z,3.08
2019-03-17T13:45:26.548Z,3.10
2019-03-17T13:47:57.092Z,3.65
2019-03-17T13:50:27.491Z,4.40
2019-03-17T13:52:58.236Z,4.55
2019-03-17T13:55:28.675Z,5.22
2019-03-17T13:57:59.770Z,5.42
2019-03-17T14:00:30.662Z,3.83
2019-03-17T14:03:01.182Z,4.40
2019-03-17T14:05:33.154Z,3.87
2019-03-17T14:08:04.978Z,3.87
2019-03-17T14:10:40.844Z,4.37
2019-03-17T14:13:07.982Z,4.05
2019-03-17T14:15:38.706Z,3.45
2019-03-17T14:18:09.900Z,2.67
2019-03-17T14:20:40.550Z,3.00
2019-03-17T14:23:11.628Z,3.45
2019-03-17T14:25:43.321Z,3.40
2019-03-17T14:28:13.814Z,2.72
2019-03-17T14:30:44.580Z,3.55
2019-03-17T14:33:15.182Z,3.95
2019-03-17T14:35:46.048Z,3.35
2019-03-17T14:38:16.688Z,3.55
2019-03-17T14:40:54.695Z,14.30
2019-03-17T14:43:21.994Z,5.78
2019-03-17T14:45:52.417Z,3.58
2019-03-17T14:48:22.892Z,2.98
2019-03-17T14:50:53.315Z,3.95
2019-03-17T14:53:24.937Z,3.37
2019-03-17T14:55:56.628Z,3.17
2019-03-17T14:58:27.485Z,3.30
2019-03-17T15:00:58.149Z,3.40
2019-03-17T15:03:28.854Z,3.15
2019-03-17T15:05:59.763Z,4.00
2019-03-17T15:08:30.154Z,4.08
2019-03-17T15:11:05.702Z,6.72
2019-03-17T15:13:32.870Z,3.75
2019-03-17T15:16:03.399Z,4.10
2019-03-17T15:18:34.444Z,4.25
2019-03-17T15:21:04.833Z,3.65
2019-03-17T15:23:35.480Z,3.65
2019-03-17T15:26:06.111Z,5.08
2019-03-17T15:28:36.664Z,4.12
2019-03-17T15:31:12.118Z,8.00
2019-03-17T15:33:40.133Z,5.35
2019-03-17T15:36:10.880Z,3.98
2019-03-17T15:38:41.642Z,12.25
2019-03-17T15:41:18.438Z,13.78
2019-03-17T15:43:44.443Z,3.65
2019-03-17T15:46:15.052Z,5.30
2019-03-17T15:48:45.770Z,4.17
2019-03-17T15:51:20.631Z,3.22
2019-03-17T15:53:48.762Z,3.40
2019-03-17T15:56:19.176Z,3.67
2019-03-17T15:58:49.874Z,3.52
2019-03-17T16:01:20.592Z,4.25
2019-03-17T16:03:51.098Z,3.45
2019-03-17T16:06:22.255Z,3.60
2019-03-17T16:08:53.369Z,3.95
2019-03-17T16:11:30.778Z,3.20
2019-03-17T16:13:56.376Z,4.17
2019-03-17T16:16:27.182Z,4.62
2019-03-17T16:18:57.903Z,3.92
2019-03-17T16:21:28.564Z,2.95
2019-03-17T16:23:59.063Z,4.10
2019-03-17T16:26:29.616Z,3.22
2019-03-17T16:29:00.498Z,3.20
2019-03-17T16:31:31.086Z,3.40
2019-03-17T16:34:01.771Z,3.37
2019-03-17T16:36:32.262Z,3.90
2019-03-17T16:39:03.396Z,10.67
2019-03-17T16:41:42.972Z,4.22
2019-03-17T16:44:06.100Z,3.75
2019-03-17T16:46:36.452Z,4.37
2019-03-17T16:49:07.262Z,5.35
2019-03-17T16:51:38.085Z,5.60
2019-03-17T16:54:08.747Z,4.47
2019-03-17T16:56:39.234Z,4.57
2019-03-17T16:59:09.770Z,4.30
2019-03-17T17:01:40.309Z,5.20
2019-03-17T17:04:10.848Z,6.67
2019-03-17T17:06:42.515Z,4.78
2019-03-17T17:09:13.040Z,4.97
2019-03-17T17:11:55.311Z,6.87
2019-03-17T17:14:15.706Z,6.07
2019-03-17T17:16:46.299Z,6.83
2019-03-17T17:19:18.044Z,4.83
2019-03-17T17:21:48.734Z,5.33
2019-03-17T17:24:19.307Z,7.40
2019-03-17T17:26:50.960Z,5.33
2019-03-17T17:29:21.972Z,6.40
2019-03-17T17:31:52.430Z,6.07
2019-03-17T17:34:24.604Z,6.10
2019-03-17T17:36:55.256Z,7.10
2019-03-17T17:39:25.922Z,6.73
2019-03-17T17:42:07.948Z,7.23
2019-03-17T17:44:28.728Z,6.93
2019-03-17T17:46:59.125Z,7.30
2019-03-17T17:49:30.866Z,6.60
2019-03-17T17:52:03.507Z,6.93
2019-03-17T17:54:33.666Z,6.03
2019-03-17T17:57:04.233Z,6.20
2019-03-17T17:59:34.618Z,6.20
2019-03-17T18:02:05.294Z,5.70
2019-03-17T18:04:35.925Z,5.87
2019-03-17T18:07:06.901Z,5.70
2019-03-17T18:09:37.598Z,6.17
2019-03-17T18:12:20.172Z,5.50
2019-03-17T18:14:42.061Z,5.67
2019-03-17T18:17:12.900Z,5.47
2019-03-17T18:19:43.364Z,5.43
2019-03-17T18:22:14.554Z,6.90
2019-03-17T18:24:45.364Z,6.00
2019-03-17T18:27:18.101Z,8.40
2019-03-17T18:29:47.945Z,8.37
2019-03-17T18:32:18.630Z,9.43
2019-03-17T18:34:50.652Z,11.13
2019-03-17T18:37:21.513Z,10.30
2019-03-17T18:39:52.054Z,10.03
2019-03-17T18:42:32.511Z,9.87
2019-03-17T18:44:54.789Z,9.93
2019-03-17T18:47:25.251Z,14.20
2019-03-17T18:49:55.849Z,11.60
2019-03-17T18:52:26.467Z,11.70
2019-03-17T18:54:57.112Z,11.17
2019-03-17T18:57:27.956Z,13.33
2019-03-17T18:59:58.943Z,11.37
2019-03-17T19:02:29.598Z,11.30
2019-03-17T19:05:01.032Z,8.87
2019-03-17T19:07:31.646Z,9.30
2019-03-17T19:10:02.283Z,10.20
2019-03-17T19:12:44.694Z,8.70
2019-03-17T19:15:05.456Z,9.90
2019-03-17T19:17:36.063Z,10.47
2019-03-17T19:20:07.618Z,9.63
2019-03-17T19:22:38.489Z,10.13
2019-03-17T19:25:10.743Z,10.63
2019-03-17T19:27:41.313Z,9.93
2019-03-17T19:30:14.528Z,11.20
2019-03-17T19:32:45.055Z,9.70
2019-03-17T19:35:16.175Z,10.27
2019-03-17T19:37:46.953Z,9.57
2019-03-17T19:40:17.402Z,9.13
2019-03-17T19:42:57.978Z,11.87
2019-03-17T19:45:20.252Z,11.67
2019-03-17T19:47:50.690Z,15.40
2019-03-17T19:50:21.258Z,24.00
2019-03-17T19:52:51.714Z,11.50
2019-03-17T19:55:22.240Z,23.70
2019-03-17T19:57:53.132Z,18.00
2019-03-17T20:00:23.559Z,15.47
2019-03-17T20:02:53.953Z,13.20
2019-03-17T20:05:24.375Z,12.57
2019-03-17T20:07:54.823Z,12.40
2019-03-17T20:10:25.857Z,14.20
2019-03-17T20:12:56.875Z,14.77
2019-03-17T20:15:27.421Z,20.13
2019-03-17T20:17:58.035Z,14.13
2019-03-17T20:20:28.428Z,13.30
2019-03-17T20:22:58.808Z,14.43
2019-03-17T20:25:29.211Z,13.23
2019-03-17T20:28:00.246Z,14.53
2019-03-17T20:30:30.652Z,18.57
2019-03-17T20:33:03.759Z,13.07
2019-03-17T20:35:34.290Z,13.33
2019-03-17T20:38:05.128Z,13.60
2019-03-17T20:40:35.548Z,13.13
2019-03-17T20:43:18.456Z,15.10
2019-03-17T20:45:38.114Z,14.83
2019-03-17T20:48:08.730Z,13.57
2019-03-17T20:50:39.493Z,14.37
2019-03-17T20:53:09.947Z,15.47
2019-03-17T20:55:40.411Z,14.90
2019-03-17T20:58:11.025Z,15.50
2019-03-17T21:00:41.436Z,15.60
2019-03-17T21:03:11.901Z,14.27
2019-03-17T21:05:42.287Z,14.90
2019-03-17T21:08:13.082Z,15.50
2019-03-17T21:10:43.479Z,17.80
2019-03-17T21:13:14.088Z,15.00
2019-03-17T21:15:44.730Z,13.30
2019-03-17T21:18:15.394Z,16.00
2019-03-17T21:20:46.795Z,16.47
2019-03-17T21:23:17.095Z,15.40
2019-03-17T21:25:48.317Z,15.83
2019-03-17T21:28:19.299Z,15.60
2019-03-17T21:30:49.860Z,14.70
2019-03-17T21:33:21.636Z,14.97
2019-03-17T21:35:52.102Z,15.10
2019-03-17T21:38:22.566Z,17.53
2019-03-17T21:41:06.219Z,19.23
2019-03-17T21:43:26.428Z,15.43
2019-03-17T21:45:57.208Z,14.30
2019-03-17T21:48:27.651Z,13.10
2019-03-17T21:50:58.552Z,11.27
2019-03-17T21:53:28.973Z,12.83
2019-03-17T21:55:59.597Z,12.13
2019-03-17T21:58:30.093Z,11.67
2019-03-17T22:01:00.735Z,13.53
2019-03-17T22:03:31.317Z,12.23
2019-03-17T22:06:02.054Z,11.40
2019-03-17T22:08:32.661Z,13.33
2019-03-17T22:11:02.987Z,12.93
2019-03-17T22:13:33.346Z,13.67
2019-03-17T22:16:03.976Z,18.97
2019-03-17T22:18:34.422Z,17.57
2019-03-17T22:21:05.993Z,18.30
2019-03-17T22:23:36.657Z,14.80
2019-03-17T22:26:07.320Z,18.70
2019-03-17T22:28:38.999Z,16.67
2019-03-17T22:31:09.652Z,13.20
2019-03-17T22:33:40.101Z,18.57
2019-03-17T22:36:10.823Z,10.97
2019-03-17T22:38:41.308Z,7.53
2019-03-17T22:41:11.929Z,6.30
2019-03-17T22:43:42.482Z,6.87
2019-03-17T22:46:13.014Z,7.70
2019-03-17T22:48:43.427Z,6.50
2019-03-17T22:51:13.816Z,7.00
2019-03-17T22:53:44.237Z,5.10
2019-03-17T22:56:14.641Z,5.33
2019-03-17T22:58:45.331Z,5.07
2019-03-17T23:01:16.191Z,2.47
2019-03-17T23:03:47.585Z,2.70
2019-03-17T23:06:21.834Z,3.17
2019-03-17T23:08:53.103Z,2.53
2019-03-17T23:11:24.018Z,2.87
2019-03-17T23:13:55.183Z,2.57
2019-03-17T23:16:26.177Z,2.80
2019-03-17T23:18:57.199Z,2.53
2019-03-17T23:21:28.143Z,5.27
2019-03-17T23:24:01.516Z,13.13
2019-03-17T23:26:32.421Z,3.10
2019-03-17T23:29:03.479Z,2.60
2019-03-17T23:31:34.809Z,2.77
2019-03-17T23:34:05.801Z,6.87
2019-03-17T23:36:36.705Z,1.93
2019-03-17T23:39:08.379Z,2.30
2019-03-17T23:41:41.931Z,1.67
2019-03-17T23:44:13.275Z,3.30
2019-03-17T23:46:44.258Z,1.70
2019-03-17T23:49:15.350Z,1.73
2019-03-17T23:51:46.664Z,2.00
2019-03-17T23:54:17.805Z,1.80
2019-03-17T23:56:48.889Z,1.90
2019-03-17T23:59:20.715Z,1.70
